createdAt,value
2019-02-04T00:01:13.834Z,7.10
2019-02-04T00:03:43.735Z,7.10
2019-02-04T00:06:15.094Z,7.00
2019-02-04T00:08:45.041Z,7.00
2019-02-04T00:11:15.025Z,7.00
2019-02-04T00:13:44.808Z,7.00
2019-02-04T00:16:15.793Z,7.00
2019-02-04T00:18:46.024Z,7.00
2019-02-04T00:21:15.875Z,7.00
2019-02-04T00:23:45.772Z,7.00
2019-02-04T00:26:17.693Z,7.00
2019-02-04T00:28:47.451Z,7.10
2019-02-04T00:31:17.200Z,7.00
2019-02-04T00:33:47.189Z,7.10
2019-02-04T00:36:18.038Z,7.10
2019-02-04T00:38:47.887Z,7.00
2019-02-04T00:41:17.912Z,7.00
2019-02-04T00:43:47.766Z,7.10
2019-02-04T00:46:20.004Z,7.10
2019-02-04T00:48:49.967Z,7.10
2019-02-04T00:51:19.845Z,7.10
2019-02-04T00:53:50.027Z,7.10
2019-02-04T00:56:23.698Z,7.10
2019-02-04T00:58:54.082Z,7.10
2019-02-04T01:01:23.949Z,7.10
2019-02-04T01:03:53.900Z,7.20
2019-02-04T01:06:25.890Z,7.20
2019-02-04T01:08:55.682Z,7.10
2019-02-04T01:11:26.023Z,7.10
2019-02-04T01:13:55.910Z,7.10
2019-02-04T01:16:26.876Z,7.00
2019-02-04T01:18:56.653Z,7.00
2019-02-04T01:21:26.728Z,7.00
2019-02-04T01:23:56.582Z,7.00
2019-02-04T01:26:27.555Z,7.00
2019-02-04T01:28:57.468Z,7.00
2019-02-04T01:31:27.354Z,7.00
2019-02-04T01:33:57.233Z,7.00
2019-02-04T01:36:28.285Z,7.00
2019-02-04T01:38:58.280Z,7.00
2019-02-04T01:41:47.684Z,7.00
2019-02-04T01:44:17.547Z,7.00
2019-02-04T01:46:51.534Z,7.00
2019-02-04T01:49:21.127Z,7.00
2019-02-04T01:51:51.132Z,7.00
2019-02-04T01:54:20.977Z,7.00
2019-02-04T01:56:52.128Z,7.00
2019-02-04T01:59:22.105Z,7.10
2019-02-04T02:01:52.428Z,7.00
2019-02-04T02:04:22.374Z,7.00
2019-02-04T02:06:53.520Z,7.00
2019-02-04T02:09:24.014Z,7.00
2019-02-04T02:11:53.944Z,7.10
2019-02-04T02:14:24.098Z,7.10
2019-02-04T02:16:55.140Z,7.10
2019-02-04T02:19:24.995Z,7.10
2019-02-04T02:22:14.348Z,7.10
2019-02-04T02:24:44.507Z,7.10
2019-02-04T02:27:15.504Z,7.20
2019-02-04T02:29:45.478Z,7.20
2019-02-04T02:32:15.466Z,7.20
2019-02-04T02:34:46.287Z,7.10
2019-02-04T02:37:28.617Z,7.10
2019-02-04T02:39:58.395Z,7.10
2019-02-04T02:42:28.430Z,7.10
2019-02-04T02:44:58.286Z,7.10
2019-02-04T02:47:38.092Z,7.10
2019-02-04T02:50:00.912Z,7.10
2019-02-04T02:52:30.917Z,7.10
2019-02-04T02:55:00.866Z,7.10
2019-02-04T02:57:31.988Z,7.10
2019-02-04T03:00:01.962Z,7.10
2019-02-04T03:02:32.498Z,7.00
2019-02-04T03:05:02.445Z,7.00
2019-02-04T03:07:35.828Z,7.00
2019-02-04T03:10:07.935Z,7.10
2019-02-04T03:12:37.987Z,7.00
2019-02-04T03:15:10.750Z,7.00
2019-02-04T03:17:51.428Z,7.00
2019-02-04T03:20:15.262Z,7.00
2019-02-04T03:22:45.155Z,7.00
2019-02-04T03:25:15.326Z,7.00
2019-02-04T03:28:04.853Z,6.90
2019-02-04T03:30:35.002Z,7.00
2019-02-04T03:33:05.096Z,6.90
2019-02-04T03:35:35.070Z,7.00
2019-02-04T03:38:04.915Z,7.00
2019-02-04T03:40:34.928Z,6.90
2019-02-04T03:43:04.859Z,6.90
2019-02-04T03:45:34.843Z,6.90
2019-02-04T03:48:08.479Z,6.90
2019-02-04T03:50:56.538Z,6.90
2019-02-04T03:53:27.714Z,6.90
2019-02-04T03:56:09.590Z,6.90
2019-02-04T03:58:39.399Z,6.90
2019-02-04T04:01:09.367Z,6.80
2019-02-04T04:03:39.246Z,6.80
2019-02-04T04:06:11.233Z,6.80
2019-02-04T04:08:40.997Z,6.80
2019-02-04T04:11:11.261Z,6.70
2019-02-04T04:13:41.334Z,6.70
2019-02-04T04:16:13.453Z,6.70
2019-02-04T04:18:43.421Z,6.80
2019-02-04T04:21:13.390Z,6.70
2019-02-04T04:23:43.376Z,6.70
2019-02-04T04:26:14.556Z,6.70
2019-02-04T04:28:44.507Z,6.70
2019-02-04T04:31:14.387Z,6.70
2019-02-04T04:33:57.057Z,6.70
2019-02-04T04:36:30.980Z,6.80
2019-02-04T04:39:00.745Z,6.70
2019-02-04T04:41:32.148Z,6.70
2019-02-04T04:44:02.015Z,6.80
2019-02-04T04:46:33.940Z,6.80
2019-02-04T04:49:05.144Z,6.80
2019-02-04T04:51:34.942Z,6.80
2019-02-04T04:54:04.868Z,6.80
2019-02-04T04:56:35.804Z,6.80
2019-02-04T04:59:05.559Z,6.80
2019-02-04T05:01:35.829Z,6.80
2019-02-04T05:04:05.702Z,6.80
2019-02-04T05:06:37.748Z,6.80
2019-02-04T05:09:07.633Z,6.80
2019-02-04T05:11:37.594Z,6.90
2019-02-04T05:14:07.499Z,6.90
2019-02-04T05:16:38.833Z,6.90
2019-02-04T05:19:08.709Z,6.90
2019-02-04T05:21:38.561Z,6.90
2019-02-04T05:24:08.330Z,6.80
2019-02-04T05:26:39.294Z,6.80
2019-02-04T05:29:09.214Z,6.80
2019-02-04T05:31:39.162Z,6.80
2019-02-04T05:34:09.045Z,6.80
2019-02-04T05:36:39.966Z,6.80
2019-02-04T05:39:09.769Z,6.80
2019-02-04T05:41:42.815Z,6.90
2019-02-04T05:44:11.547Z,6.90
2019-02-04T05:46:43.536Z,6.90
2019-02-04T05:49:14.340Z,6.90
2019-02-04T05:51:44.320Z,6.90
2019-02-04T05:54:14.599Z,6.90
2019-02-04T05:56:45.639Z,6.80
2019-02-04T05:59:15.478Z,6.80
2019-02-04T06:01:45.379Z,6.80
2019-02-04T06:04:15.352Z,6.80
2019-02-04T06:06:46.429Z,6.70
2019-02-04T06:09:16.423Z,6.70
2019-02-04T06:11:46.391Z,6.70
2019-02-04T06:14:16.294Z,6.70
2019-02-04T06:16:48.247Z,6.70
2019-02-04T06:19:18.119Z,6.70
2019-02-04T06:21:48.314Z,6.70
2019-02-04T06:24:18.308Z,6.70
2019-02-04T06:26:49.471Z,6.70
2019-02-04T06:29:19.414Z,6.60
2019-02-04T06:31:49.389Z,6.60
2019-02-04T06:34:33.455Z,6.60
2019-02-04T06:37:07.303Z,6.50
2019-02-04T06:39:37.168Z,6.50
2019-02-04T06:42:07.068Z,6.50
2019-02-04T06:44:37.339Z,6.40
2019-02-04T06:47:10.390Z,6.40
2019-02-04T06:49:41.312Z,6.40
2019-02-04T06:52:11.202Z,6.40
2019-02-04T06:54:41.151Z,6.40
2019-02-04T06:57:11.915Z,6.40
2019-02-04T06:59:41.807Z,6.40
2019-02-04T07:02:11.676Z,6.40
2019-02-04T07:04:41.515Z,6.40
2019-02-04T07:07:15.070Z,6.40
2019-02-04T07:09:43.801Z,6.40
2019-02-04T07:12:14.076Z,6.50
2019-02-04T07:14:44.122Z,6.50
2019-02-04T07:17:20.019Z,6.50
2019-02-04T07:19:49.994Z,6.50
2019-02-04T07:22:19.878Z,6.60
2019-02-04T07:25:06.386Z,6.50
2019-02-04T07:27:36.326Z,6.60
2019-02-04T07:30:09.401Z,6.50
2019-02-04T07:32:39.281Z,6.60
2019-02-04T07:35:30.440Z,6.60
2019-02-04T07:38:00.222Z,6.60
2019-02-04T07:40:32.366Z,6.60
2019-02-04T07:43:02.127Z,6.60
2019-02-04T07:45:32.410Z,6.70
2019-02-04T07:48:02.279Z,6.70
2019-02-04T07:50:32.312Z,6.70
2019-02-04T07:53:02.370Z,6.70
2019-02-04T07:55:32.356Z,6.70
2019-02-04T07:58:02.216Z,6.70
2019-02-04T08:00:33.719Z,6.70
2019-02-04T08:03:03.708Z,6.70
2019-02-04T08:05:33.685Z,6.70
2019-02-04T08:08:03.658Z,6.70
2019-02-04T08:10:33.668Z,6.70
2019-02-04T08:13:03.859Z,6.80
2019-02-04T08:15:36.089Z,6.80
2019-02-04T08:18:06.742Z,6.80
2019-02-04T08:20:36.641Z,6.90
2019-02-04T08:23:06.513Z,6.90
2019-02-04T08:25:36.387Z,6.90
2019-02-04T08:28:06.262Z,6.90
2019-02-04T08:30:38.161Z,6.90
2019-02-04T08:33:09.487Z,7.00
2019-02-04T08:35:39.378Z,7.00
2019-02-04T08:38:09.253Z,7.00
2019-02-04T08:40:39.443Z,7.10
2019-02-04T08:45:55.007Z,7.30
2019-02-04T08:48:24.960Z,7.40
2019-02-04T08:50:54.977Z,7.50
2019-02-04T08:53:24.930Z,7.60
2019-02-04T08:55:55.983Z,7.70
2019-02-04T08:58:26.054Z,7.70
2019-02-04T09:00:56.034Z,7.80
2019-02-04T09:03:26.095Z,7.80
2019-02-04T09:05:59.880Z,7.80
2019-02-04T09:08:29.971Z,7.80
2019-02-04T09:11:00.837Z,7.70
2019-02-04T09:13:42.880Z,7.70
2019-02-04T09:16:14.037Z,7.80
2019-02-04T09:18:45.054Z,7.80
2019-02-04T09:21:15.170Z,7.90
2019-02-04T09:23:45.041Z,8.00
2019-02-04T09:26:16.081Z,8.20
2019-02-04T09:28:45.939Z,8.40
2019-02-04T09:31:15.968Z,8.60
2019-02-04T09:33:45.849Z,8.70
2019-02-04T09:36:17.951Z,8.80
2019-02-04T09:38:47.925Z,9.00
2019-02-04T09:41:17.950Z,9.40
2019-02-04T09:43:47.918Z,10.80
2019-02-04T09:46:21.278Z,13.00
2019-02-04T09:48:51.642Z,14.80
2019-02-04T09:51:23.855Z,15.80
2019-02-04T09:53:55.529Z,16.20
2019-02-04T09:56:29.011Z,15.90
2019-02-04T09:58:59.557Z,15.30
2019-02-04T10:01:29.548Z,14.30
2019-02-04T10:03:59.611Z,14.00
2019-02-04T10:06:30.786Z,13.60
2019-02-04T10:09:00.768Z,13.60
2019-02-04T10:11:33.091Z,14.10
2019-02-04T10:14:03.433Z,14.70
2019-02-04T10:16:36.664Z,14.90
2019-02-04T10:19:06.628Z,14.90
2019-02-04T10:21:37.336Z,14.70
2019-02-04T10:24:07.531Z,14.30
2019-02-04T10:26:40.804Z,13.70
2019-02-04T10:29:11.352Z,13.40
2019-02-04T10:31:43.259Z,13.00
2019-02-04T10:34:13.826Z,12.70
2019-02-04T10:36:48.624Z,12.50
2019-02-04T10:39:18.642Z,12.40
2019-02-04T10:41:49.216Z,12.30
2019-02-04T10:44:19.144Z,12.30
2019-02-04T10:46:50.362Z,12.30
2019-02-04T10:49:20.702Z,12.10
2019-02-04T10:51:51.726Z,12.00
2019-02-04T10:54:21.773Z,11.80
2019-02-04T10:56:53.870Z,11.60
2019-02-04T10:59:23.866Z,11.70
2019-02-04T11:01:54.191Z,11.60
2019-02-04T11:04:24.197Z,11.50
2019-02-04T11:06:54.286Z,11.40
2019-02-04T11:09:40.874Z,11.30
2019-02-04T11:12:10.889Z,11.30
2019-02-04T11:14:41.220Z,11.20
2019-02-04T11:17:12.354Z,11.20
2019-02-04T11:19:42.245Z,11.20
2019-02-04T11:22:12.249Z,11.20
2019-02-04T11:24:42.112Z,11.30
2019-02-04T11:27:16.333Z,11.20
2019-02-04T11:29:46.208Z,11.20
2019-02-04T11:32:16.215Z,11.10
2019-02-04T11:34:48.981Z,11.10
2019-02-04T11:37:18.620Z,11.00
2019-02-04T11:39:48.720Z,10.80
2019-02-04T11:42:18.709Z,10.70
2019-02-04T11:44:48.673Z,10.70
2019-02-04T11:47:19.734Z,10.70
2019-02-04T11:49:49.583Z,10.60
2019-02-04T11:52:20.744Z,10.60
2019-02-04T11:54:50.706Z,10.50
2019-02-04T11:57:21.782Z,10.60
2019-02-04T11:59:51.644Z,10.60
2019-02-04T12:02:21.542Z,10.40
2019-02-04T12:04:51.502Z,10.40
2019-02-04T12:07:21.777Z,10.30
2019-02-04T12:09:51.754Z,10.30
2019-02-04T12:12:22.572Z,10.20
2019-02-04T12:14:53.139Z,10.30
2019-02-04T12:17:28.922Z,10.40
2019-02-04T12:19:59.479Z,10.40
2019-02-04T12:22:29.419Z,10.40
2019-02-04T12:25:05.589Z,10.40
2019-02-04T12:27:36.592Z,10.40
2019-02-04T12:30:09.928Z,10.30
2019-02-04T12:32:41.838Z,10.30
2019-02-04T12:35:14.017Z,10.40
2019-02-04T12:37:44.764Z,10.40
2019-02-04T12:40:16.242Z,10.40
2019-02-04T12:42:47.306Z,10.40
2019-02-04T12:45:32.442Z,10.40
2019-02-04T12:48:04.212Z,10.30
2019-02-04T12:50:34.483Z,10.30
2019-02-04T12:53:05.619Z,10.40
2019-02-04T12:55:35.482Z,10.40
2019-02-04T12:58:06.376Z,10.50
2019-02-04T13:00:36.436Z,10.60
2019-02-04T13:03:06.318Z,10.50
2019-02-04T13:05:52.444Z,10.50
2019-02-04T13:08:22.414Z,10.60
2019-02-04T13:10:52.280Z,10.60
2019-02-04T13:13:22.267Z,10.50
2019-02-04T13:15:53.291Z,10.50
2019-02-04T13:18:23.813Z,10.50
2019-02-04T13:20:53.679Z,10.50
2019-02-04T13:23:23.633Z,10.60
2019-02-04T13:25:59.389Z,10.60
2019-02-04T13:28:29.251Z,10.70
2019-02-04T13:30:59.010Z,10.70
2019-02-04T13:33:28.878Z,10.70
2019-02-04T13:35:59.844Z,10.60
2019-02-04T13:38:29.740Z,10.60
2019-02-04T13:41:07.612Z,10.60
2019-02-04T13:43:31.121Z,10.60
2019-02-04T13:46:05.794Z,10.50
2019-02-04T13:48:34.641Z,10.50
2019-02-04T13:51:04.598Z,10.60
2019-02-04T13:53:35.551Z,10.50
2019-02-04T13:56:07.550Z,10.50
2019-02-04T13:58:37.525Z,10.50
2019-02-04T14:01:09.471Z,10.60
2019-02-04T14:03:39.520Z,10.60
2019-02-04T14:06:12.703Z,10.60
2019-02-04T14:08:42.591Z,10.60
2019-02-04T14:11:12.593Z,10.60
2019-02-04T14:13:42.739Z,10.50
2019-02-04T14:16:13.618Z,10.50
2019-02-04T14:18:43.575Z,10.60
2019-02-04T14:21:13.579Z,10.60
2019-02-04T14:23:43.806Z,10.60
2019-02-04T14:26:14.780Z,10.60
2019-02-04T14:28:44.776Z,10.60
2019-02-04T14:31:14.651Z,10.50
2019-02-04T14:33:44.659Z,10.50
2019-02-04T14:36:16.660Z,10.50
2019-02-04T14:38:46.672Z,10.50
2019-02-04T14:41:16.561Z,10.50
2019-02-04T14:43:46.756Z,10.40
2019-02-04T14:46:25.846Z,10.40
2019-02-04T14:49:02.867Z,10.40
2019-02-04T14:52:03.446Z,10.40
2019-02-04T14:54:55.610Z,10.40
2019-02-04T14:57:34.586Z,10.50
2019-02-04T15:00:13.480Z,10.40
2019-02-04T15:03:21.279Z,10.40
2019-02-04T15:06:07.660Z,10.40
2019-02-04T15:08:57.233Z,10.40
2019-02-04T15:11:30.390Z,10.40
2019-02-04T15:14:24.466Z,10.30
2019-02-04T15:16:58.645Z,10.30
2019-02-04T15:19:49.967Z,10.30
2019-02-04T15:22:33.014Z,10.30
2019-02-04T15:25:09.242Z,10.30
2019-02-04T15:27:55.383Z,10.30
2019-02-04T15:30:46.357Z,10.30
2019-02-04T15:33:40.772Z,10.30
2019-02-04T15:36:23.167Z,10.30
2019-02-04T15:39:08.121Z,10.30
2019-02-04T15:41:41.641Z,10.30
2019-02-04T15:44:36.492Z,10.30
2019-02-04T15:47:18.875Z,10.30
2019-02-04T15:50:00.997Z,10.20
2019-02-04T15:52:31.940Z,10.20
2019-02-04T15:55:03.381Z,10.10
2019-02-04T15:57:34.259Z,10.10
2019-02-04T16:00:05.784Z,10.10
2019-02-04T16:02:35.787Z,10.00
2019-02-04T16:05:08.487Z,10.00
2019-02-04T16:07:40.780Z,9.90
2019-02-04T16:10:14.468Z,9.90
2019-02-04T16:12:47.587Z,9.90
2019-02-04T16:15:16.292Z,9.80
2019-02-04T16:17:47.292Z,9.70
2019-02-04T16:20:22.971Z,9.70
2019-02-04T16:22:58.568Z,9.60
2019-02-04T16:25:24.379Z,9.60
2019-02-04T16:27:55.359Z,9.50
2019-02-04T16:30:25.371Z,9.50
2019-02-04T16:32:55.715Z,9.40
2019-02-04T16:35:25.713Z,9.30
2019-02-04T16:37:55.592Z,9.30
2019-02-04T16:40:25.577Z,9.20
2019-02-04T16:42:55.461Z,9.20
2019-02-04T16:45:25.484Z,9.10
2019-02-04T16:47:55.478Z,9.10
2019-02-04T16:50:27.312Z,9.00
2019-02-04T16:53:08.649Z,9.00
2019-02-04T16:55:29.696Z,8.90
2019-02-04T16:57:59.589Z,8.80
2019-02-04T17:00:31.667Z,8.80
2019-02-04T17:03:01.673Z,8.70
2019-02-04T17:05:31.789Z,8.70
2019-02-04T17:08:01.780Z,8.60
2019-02-04T17:10:31.851Z,8.60
2019-02-04T17:13:01.763Z,8.60
2019-02-04T17:15:32.968Z,8.60
2019-02-04T17:18:02.960Z,8.60
2019-02-04T17:20:33.610Z,8.60
2019-02-04T17:23:03.523Z,8.60
2019-02-04T17:25:33.548Z,8.50
2019-02-04T17:28:03.951Z,8.50
2019-02-04T17:30:34.059Z,8.50
2019-02-04T17:33:03.971Z,8.50
2019-02-04T17:35:34.060Z,8.50
2019-02-04T17:38:04.287Z,8.50
2019-02-04T17:40:34.348Z,8.50
2019-02-04T17:43:04.239Z,8.50
2019-02-04T17:45:34.473Z,8.50
2019-02-04T17:48:04.489Z,8.50
2019-02-04T17:50:34.557Z,8.50
2019-02-04T17:53:04.457Z,8.50
2019-02-04T17:55:35.806Z,8.50
2019-02-04T17:58:05.820Z,8.40
2019-02-04T18:00:37.389Z,8.40
2019-02-04T18:03:07.584Z,8.30
2019-02-04T18:05:37.708Z,8.20
2019-02-04T18:08:07.924Z,8.10
2019-02-04T18:10:38.032Z,8.10
2019-02-04T18:13:07.920Z,8.00
2019-02-04T18:15:37.926Z,8.00
2019-02-04T18:18:07.813Z,8.00
2019-02-04T18:20:37.905Z,7.90
2019-02-04T18:23:11.101Z,7.90
2019-02-04T18:25:39.722Z,7.80
2019-02-04T18:28:09.637Z,7.80
2019-02-04T18:30:39.651Z,7.70
2019-02-04T18:33:09.554Z,7.70
2019-02-04T18:35:39.969Z,7.70
2019-02-04T18:38:09.889Z,7.60
2019-02-04T18:40:40.016Z,7.60
2019-02-04T18:43:09.926Z,7.60
2019-02-04T18:45:39.951Z,7.50
2019-02-04T18:48:09.855Z,7.50
2019-02-04T18:50:40.386Z,7.50
2019-02-04T18:53:10.492Z,7.40
2019-02-04T18:55:41.665Z,7.40
2019-02-04T18:58:11.628Z,7.40
2019-02-04T19:00:41.745Z,7.40
2019-02-04T19:03:17.322Z,7.40
2019-02-04T19:05:43.401Z,7.40
2019-02-04T19:08:13.507Z,7.40
2019-02-04T19:10:43.566Z,7.40
2019-02-04T19:13:35.414Z,7.40
2019-02-04T19:15:56.525Z,7.40
2019-02-04T19:18:26.429Z,7.40
2019-02-04T19:20:56.506Z,7.40
2019-02-04T19:23:27.074Z,7.30
2019-02-04T19:25:57.275Z,7.30
2019-02-04T19:28:27.252Z,7.20
2019-02-04T19:31:00.487Z,7.10
2019-02-04T19:33:30.662Z,7.00
2019-02-04T19:36:01.807Z,6.90
2019-02-04T19:38:31.721Z,6.80
2019-02-04T19:41:02.033Z,6.80
2019-02-04T19:43:32.004Z,6.70
2019-02-04T19:46:04.139Z,6.60
2019-02-04T19:48:34.269Z,6.60
2019-02-04T19:51:04.405Z,6.50
2019-02-04T19:53:34.896Z,6.40
2019-02-04T19:56:10.240Z,6.40
2019-02-04T19:58:40.147Z,6.40
2019-02-04T20:01:12.716Z,6.30
2019-02-04T20:03:42.909Z,6.30
2019-02-04T20:06:14.440Z,6.20
2019-02-04T20:09:07.027Z,6.20
2019-02-04T20:11:38.605Z,6.10
2019-02-04T20:14:29.598Z,6.00
2019-02-04T20:17:01.361Z,6.00
2019-02-04T20:19:31.287Z,6.00
2019-02-04T20:22:01.391Z,6.00
2019-02-04T20:24:33.370Z,5.90
2019-02-04T20:27:05.134Z,5.90
2019-02-04T20:29:35.138Z,5.90
2019-02-04T20:32:05.268Z,5.80
2019-02-04T20:34:36.302Z,5.80
2019-02-04T20:37:09.221Z,5.80
2019-02-04T20:39:39.814Z,5.80
2019-02-04T20:42:09.968Z,5.80
2019-02-04T20:44:39.887Z,5.80
2019-02-04T20:47:11.215Z,5.80
2019-02-04T20:49:41.304Z,5.80
2019-02-04T20:52:11.530Z,5.80
2019-02-04T20:54:44.969Z,5.70
2019-02-04T20:57:14.461Z,5.80
2019-02-04T20:59:44.456Z,5.80
2019-02-04T21:02:15.221Z,5.80
2019-02-04T21:04:45.114Z,5.70
2019-02-04T21:07:16.464Z,5.70
2019-02-04T21:09:46.507Z,5.60
2019-02-04T21:12:16.646Z,5.70
2019-02-04T21:14:46.634Z,5.70
2019-02-04T21:17:19.926Z,5.70
2019-02-04T21:19:51.139Z,5.70
2019-02-04T21:22:21.252Z,5.70
2019-02-04T21:24:56.394Z,5.60
2019-02-04T21:27:24.898Z,5.60
2019-02-04T21:29:55.216Z,5.50
2019-02-04T21:32:25.671Z,5.50
2019-02-04T21:34:55.866Z,5.40
2019-02-04T21:37:27.116Z,5.40
2019-02-04T21:39:57.119Z,5.40
2019-02-04T21:42:27.222Z,5.40
2019-02-04T21:44:57.234Z,5.40
2019-02-04T21:47:28.495Z,5.40
2019-02-04T21:50:00.110Z,5.40
2019-02-04T21:52:31.365Z,5.40
2019-02-04T21:55:08.147Z,5.40
2019-02-04T21:57:45.374Z,5.40
2019-02-04T22:00:21.033Z,5.30
2019-02-04T22:02:51.860Z,5.30
2019-02-04T22:05:24.238Z,5.20
2019-02-04T22:07:54.364Z,5.30
2019-02-04T22:10:26.021Z,5.30
2019-02-04T22:12:58.500Z,5.20
2019-02-04T22:15:29.595Z,5.30
2019-02-04T22:18:00.690Z,5.20
2019-02-04T22:20:30.801Z,5.10
2019-02-04T22:23:00.857Z,4.90
2019-02-04T22:25:31.350Z,4.80
2019-02-04T22:28:02.418Z,4.70
2019-02-04T22:30:32.374Z,4.70
2019-02-04T22:33:02.321Z,4.60
2019-02-04T22:35:33.322Z,4.70
2019-02-04T22:38:04.827Z,4.70
2019-02-04T22:40:34.713Z,4.60
2019-02-04T22:43:16.945Z,4.60
2019-02-04T22:45:46.948Z,4.60
2019-02-04T22:48:24.060Z,4.50
2019-02-04T22:50:56.678Z,4.50
2019-02-04T22:53:26.749Z,4.50
2019-02-04T22:55:56.706Z,4.50
2019-02-04T22:58:27.784Z,4.40
2019-02-04T23:01:09.743Z,4.30
2019-02-04T23:03:51.801Z,4.40
2019-02-04T23:06:22.985Z,4.30
2019-02-04T23:08:52.996Z,4.40
2019-02-04T23:11:23.212Z,4.40
2019-02-04T23:13:53.247Z,4.40
2019-02-04T23:16:24.429Z,4.30
2019-02-04T23:18:54.482Z,4.30
2019-02-04T23:21:24.388Z,4.30
2019-02-04T23:23:55.979Z,4.30
2019-02-04T23:26:27.041Z,4.20
2019-02-04T23:28:57.233Z,4.20
2019-02-04T23:31:27.135Z,4.20
2019-02-04T23:33:58.129Z,4.10
2019-02-04T23:36:31.355Z,3.90
2019-02-04T23:39:01.367Z,3.90
2019-02-04T23:41:32.801Z,3.90
2019-02-04T23:44:02.815Z,3.90
2019-02-04T23:46:33.804Z,3.90
2019-02-04T23:49:03.807Z,3.90
2019-02-04T23:51:33.710Z,4.00
2019-02-04T23:54:03.762Z,4.10
2019-02-04T23:56:37.139Z,4.20
2019-02-04T23:59:07.146Z,4.30
